Marietta, South Carolina
Current Conditions -  °F | °C
As of 4:53 AM on Friday 31 Oct 2014 (Local Time) from KGMU Reporting Station
Clear Clear  
Wind Chill: 44°   Ceiling: Unl
Heat Index: 49°   Visibility: 10mi
Dew Point: 37°   Wind: 13mph
Humidity: 64%   Direction: 30°NNE
Pressure: 29.93"   Gusts: NA
Location:  35.02°N, 82.5°W
Report Text: KGMU 310853Z AUTO 03011KT 10SM CLR 09/03 A2993 RMK AO2 SLP133 T00940028 58011
Loading
Personal Weather Stations






























Interactive Weather Map
Tropical Storm Tracking
New forecast layout! Learn more

10-Day Weather Forecast

Advertisements
Track Severe Weather on mobile